sensor_id;sensor_type;location;lat;lon;timestamp;temperature;humidity
81136;DHT22;70622;50.886;3.890;2024-02-21T00:01:21;9.50;99.90
81136;DHT22;70622;50.886;3.890;2024-02-21T00:03:47;9.50;99.90
81136;DHT22;70622;50.886;3.890;2024-02-21T00:06:12;9.50;99.90
81136;DHT22;70622;50.886;3.890;2024-02-21T00:08:38;9.50;99.90
81136;DHT22;70622;50.886;3.890;2024-02-21T00:11:03;9.50;99.90
81136;DHT22;70622;50.886;3.890;2024-02-21T00:13:29;9.40;99.90
81136;DHT22;70622;50.886;3.890;2024-02-21T00:15:55;9.50;99.90
81136;DHT22;70622;50.886;3.890;2024-02-21T00:18:20;9.30;99.90
81136;DHT22;70622;50.886;3.890;2024-02-21T00:20:46;9.30;99.90
81136;DHT22;70622;50.886;3.890;2024-02-21T00:23:11;9.30;99.90
81136;DHT22;70622;50.886;3.890;2024-02-21T00:25:37;9.20;99.90
81136;DHT22;70622;50.886;3.890;2024-02-21T00:28:03;9.10;99.90
81136;DHT22;70622;50.886;3.890;2024-02-21T00:30:31;9.10;99.90
81136;DHT22;70622;50.886;3.890;2024-02-21T00:32:56;9.10;99.90
81136;DHT22;70622;50.886;3.890;2024-02-21T00:35:22;9.20;99.90
81136;DHT22;70622;50.886;3.890;2024-02-21T00:37:47;9.20;99.90
81136;DHT22;70622;50.886;3.890;2024-02-21T00:40:13;9.30;99.90
81136;DHT22;70622;50.886;3.890;2024-02-21T00:42:41;9.40;99.90
81136;DHT22;70622;50.886;3.890;2024-02-21T00:45:07;9.30;99.90
81136;DHT22;70622;50.886;3.890;2024-02-21T00:47:33;9.30;99.90
81136;DHT22;70622;50.886;3.890;2024-02-21T00:49:59;9.30;99.90
81136;DHT22;70622;50.886;3.890;2024-02-21T00:52:24;9.20;99.90
81136;DHT22;70622;50.886;3.890;2024-02-21T00:54:49;9.20;99.90
81136;DHT22;70622;50.886;3.890;2024-02-21T00:57:15;9.10;99.90
81136;DHT22;70622;50.886;3.890;2024-02-21T00:59:40;9.00;99.90
81136;DHT22;70622;50.886;3.890;2024-02-21T01:02:07;8.90;99.90
81136;DHT22;70622;50.886;3.890;2024-02-21T01:04:32;8.80;99.90
81136;DHT22;70622;50.886;3.890;2024-02-21T01:06:57;8.70;99.90
81136;DHT22;70622;50.886;3.890;2024-02-21T01:09:23;8.60;99.90
81136;DHT22;70622;50.886;3.890;2024-02-21T01:11:49;8.60;99.90
81136;DHT22;70622;50.886;3.890;2024-02-21T01:14:14;8.50;99.90
81136;DHT22;70622;50.886;3.890;2024-02-21T01:16:40;8.50;99.90
81136;DHT22;70622;50.886;3.890;2024-02-21T01:19:05;8.50;99.90
81136;DHT22;70622;50.886;3.890;2024-02-21T01:21:31;8.50;99.90
81136;DHT22;70622;50.886;3.890;2024-02-21T01:23:56;8.50;99.90
81136;DHT22;70622;50.886;3.890;2024-02-21T01:26:22;8.60;99.90
81136;DHT22;70622;50.886;3.890;2024-02-21T01:28:47;8.50;99.90
81136;DHT22;70622;50.886;3.890;2024-02-21T01:31:13;8.50;99.90
81136;DHT22;70622;50.886;3.890;2024-02-21T01:33:38;8.60;99.90
81136;DHT22;70622;50.886;3.890;2024-02-21T01:36:04;8.50;99.90
81136;DHT22;70622;50.886;3.890;2024-02-21T01:38:32;8.40;99.90
81136;DHT22;70622;50.886;3.890;2024-02-21T01:40:57;8.40;99.90
81136;DHT22;70622;50.886;3.890;2024-02-21T01:43:23;8.40;99.90
81136;DHT22;70622;50.886;3.890;2024-02-21T01:45:49;8.30;99.90
81136;DHT22;70622;50.886;3.890;2024-02-21T01:48:16;8.20;99.90
81136;DHT22;70622;50.886;3.890;2024-02-21T01:50:42;8.20;99.90
81136;DHT22;70622;50.886;3.890;2024-02-21T01:53:08;8.20;99.90
81136;DHT22;70622;50.886;3.890;2024-02-21T01:55:34;8.30;99.90
81136;DHT22;70622;50.886;3.890;2024-02-21T01:58:01;8.20;99.90
81136;DHT22;70622;50.886;3.890;2024-02-21T02:00:27;8.30;99.90
81136;DHT22;70622;50.886;3.890;2024-02-21T02:02:53;8.30;99.90
81136;DHT22;70622;50.886;3.890;2024-02-21T02:05:19;8.30;99.90
81136;DHT22;70622;50.886;3.890;2024-02-21T02:07:46;8.40;99.90
81136;DHT22;70622;50.886;3.890;2024-02-21T02:10:12;8.40;99.90
81136;DHT22;70622;50.886;3.890;2024-02-21T02:12:37;8.40;99.90
81136;DHT22;70622;50.886;3.890;2024-02-21T02:15:03;8.30;99.90
81136;DHT22;70622;50.886;3.890;2024-02-21T02:17:30;8.40;99.90
81136;DHT22;70622;50.886;3.890;2024-02-21T02:19:55;8.40;99.90
81136;DHT22;70622;50.886;3.890;2024-02-21T02:22:22;8.30;99.90
81136;DHT22;70622;50.886;3.890;2024-02-21T02:24:48;8.30;99.90
81136;DHT22;70622;50.886;3.890;2024-02-21T02:27:14;8.40;99.90
81136;DHT22;70622;50.886;3.890;2024-02-21T02:29:39;8.40;99.90
81136;DHT22;70622;50.886;3.890;2024-02-21T02:32:05;8.50;99.90
81136;DHT22;70622;50.886;3.890;2024-02-21T02:34:30;8.60;99.90
81136;DHT22;70622;50.886;3.890;2024-02-21T02:36:56;8.60;99.90
81136;DHT22;70622;50.886;3.890;2024-02-21T02:39:21;8.70;99.90
81136;DHT22;70622;50.886;3.890;2024-02-21T02:41:47;8.70;99.90
81136;DHT22;70622;50.886;3.890;2024-02-21T02:44:12;8.70;99.90
81136;DHT22;70622;50.886;3.890;2024-02-21T02:46:40;8.70;99.90
81136;DHT22;70622;50.886;3.890;2024-02-21T02:49:05;8.70;99.90
81136;DHT22;70622;50.886;3.890;2024-02-21T02:51:31;8.70;99.90
81136;DHT22;70622;50.886;3.890;2024-02-21T02:53:56;8.70;99.90
81136;DHT22;70622;50.886;3.890;2024-02-21T02:56:22;8.70;99.90
81136;DHT22;70622;50.886;3.890;2024-02-21T02:58:48;8.60;99.90
81136;DHT22;70622;50.886;3.890;2024-02-21T03:01:13;8.60;99.90
81136;DHT22;70622;50.886;3.890;2024-02-21T03:03:39;8.70;99.90
81136;DHT22;70622;50.886;3.890;2024-02-21T03:06:04;8.70;99.90
81136;DHT22;70622;50.886;3.890;2024-02-21T03:08:30;8.70;99.90
81136;DHT22;70622;50.886;3.890;2024-02-21T03:10:55;8.70;99.90
81136;DHT22;70622;50.886;3.890;2024-02-21T03:13:21;8.60;99.90
81136;DHT22;70622;50.886;3.890;2024-02-21T03:15:46;8.70;99.90
81136;DHT22;70622;50.886;3.890;2024-02-21T03:18:12;8.60;99.90
81136;DHT22;70622;50.886;3.890;2024-02-21T03:20:37;8.60;99.90
81136;DHT22;70622;50.886;3.890;2024-02-21T03:23:03;8.60;99.90
81136;DHT22;70622;50.886;3.890;2024-02-21T03:25:28;8.60;99.90
81136;DHT22;70622;50.886;3.890;2024-02-21T03:27:54;8.50;99.90
81136;DHT22;70622;50.886;3.890;2024-02-21T03:30:19;8.60;99.90
81136;DHT22;70622;50.886;3.890;2024-02-21T03:32:45;8.50;99.90
81136;DHT22;70622;50.886;3.890;2024-02-21T03:35:11;8.60;99.90
81136;DHT22;70622;50.886;3.890;2024-02-21T03:37:36;8.50;99.90
81136;DHT22;70622;50.886;3.890;2024-02-21T03:40:02;8.50;99.90
81136;DHT22;70622;50.886;3.890;2024-02-21T03:42:28;8.40;99.90
81136;DHT22;70622;50.886;3.890;2024-02-21T03:44:55;8.40;99.90
81136;DHT22;70622;50.886;3.890;2024-02-21T03:47:21;8.30;99.90
81136;DHT22;70622;50.886;3.890;2024-02-21T03:49:46;8.40;99.90
81136;DHT22;70622;50.886;3.890;2024-02-21T03:52:12;8.30;99.90
81136;DHT22;70622;50.886;3.890;2024-02-21T03:54:37;8.40;99.90
81136;DHT22;70622;50.886;3.890;2024-02-21T03:57:04;8.40;99.90
81136;DHT22;70622;50.886;3.890;2024-02-21T03:59:30;8.50;99.90
81136;DHT22;70622;50.886;3.890;2024-02-21T04:01:55;8.50;99.90
81136;DHT22;70622;50.886;3.890;2024-02-21T04:04:21;8.50;99.90
81136;DHT22;70622;50.886;3.890;2024-02-21T04:06:47;8.50;99.90
81136;DHT22;70622;50.886;3.890;2024-02-21T04:09:13;8.40;99.90
81136;DHT22;70622;50.886;3.890;2024-02-21T04:11:39;8.40;99.90
81136;DHT22;70622;50.886;3.890;2024-02-21T04:14:04;8.50;99.90
81136;DHT22;70622;50.886;3.890;2024-02-21T04:16:29;8.40;99.90
81136;DHT22;70622;50.886;3.890;2024-02-21T04:18:55;8.40;99.90
81136;DHT22;70622;50.886;3.890;2024-02-21T04:21:20;8.50;99.90
81136;DHT22;70622;50.886;3.890;2024-02-21T04:23:46;8.50;99.90
81136;DHT22;70622;50.886;3.890;2024-02-21T04:26:11;8.40;99.90
81136;DHT22;70622;50.886;3.890;2024-02-21T04:28:37;8.40;99.90
81136;DHT22;70622;50.886;3.890;2024-02-21T04:31:03;8.40;99.90
81136;DHT22;70622;50.886;3.890;2024-02-21T04:33:29;8.30;99.90
81136;DHT22;70622;50.886;3.890;2024-02-21T04:35:55;8.40;99.90
81136;DHT22;70622;50.886;3.890;2024-02-21T04:38:20;8.30;99.90
81136;DHT22;70622;50.886;3.890;2024-02-21T04:40:46;8.40;99.90
81136;DHT22;70622;50.886;3.890;2024-02-21T04:43:11;8.40;99.90
81136;DHT22;70622;50.886;3.890;2024-02-21T04:45:37;8.50;99.90
81136;DHT22;70622;50.886;3.890;2024-02-21T04:48:02;8.50;99.90
81136;DHT22;70622;50.886;3.890;2024-02-21T04:50:28;8.40;99.90
81136;DHT22;70622;50.886;3.890;2024-02-21T04:52:53;8.40;99.90
81136;DHT22;70622;50.886;3.890;2024-02-21T04:55:19;8.40;99.90
81136;DHT22;70622;50.886;3.890;2024-02-21T04:57:44;8.40;99.90
81136;DHT22;70622;50.886;3.890;2024-02-21T05:00:10;8.40;99.90
81136;DHT22;70622;50.886;3.890;2024-02-21T05:02:36;8.40;99.90
81136;DHT22;70622;50.886;3.890;2024-02-21T05:05:01;8.40;99.90
81136;DHT22;70622;50.886;3.890;2024-02-21T05:07:27;8.40;99.90
81136;DHT22;70622;50.886;3.890;2024-02-21T05:09:53;8.40;99.90
81136;DHT22;70622;50.886;3.890;2024-02-21T05:12:18;8.40;99.90
81136;DHT22;70622;50.886;3.890;2024-02-21T05:14:44;8.40;99.90
81136;DHT22;70622;50.886;3.890;2024-02-21T05:17:09;8.50;99.90
81136;DHT22;70622;50.886;3.890;2024-02-21T05:19:35;8.50;99.90
81136;DHT22;70622;50.886;3.890;2024-02-21T05:22:00;8.40;99.90
81136;DHT22;70622;50.886;3.890;2024-02-21T05:24:26;8.50;99.90
81136;DHT22;70622;50.886;3.890;2024-02-21T05:26:51;8.40;99.90
81136;DHT22;70622;50.886;3.890;2024-02-21T05:29:17;8.50;99.90
81136;DHT22;70622;50.886;3.890;2024-02-21T05:31:58;8.50;99.90
81136;DHT22;70622;50.886;3.890;2024-02-21T05:34:23;8.60;99.90
81136;DHT22;70622;50.886;3.890;2024-02-21T05:36:49;8.60;99.90
81136;DHT22;70622;50.886;3.890;2024-02-21T05:39:15;8.60;99.90
81136;DHT22;70622;50.886;3.890;2024-02-21T05:41:41;8.70;99.90
81136;DHT22;70622;50.886;3.890;2024-02-21T05:44:07;8.70;99.90
81136;DHT22;70622;50.886;3.890;2024-02-21T05:46:32;8.80;99.90
81136;DHT22;70622;50.886;3.890;2024-02-21T05:48:58;8.80;99.90
81136;DHT22;70622;50.886;3.890;2024-02-21T05:57:09;8.80;99.90
81136;DHT22;70622;50.886;3.890;2024-02-21T05:59:54;8.80;99.90
81136;DHT22;70622;50.886;3.890;2024-02-21T06:04:51;8.70;99.90
81136;DHT22;70622;50.886;3.890;2024-02-21T06:07:58;8.70;99.90
81136;DHT22;70622;50.886;3.890;2024-02-21T06:10:25;8.70;99.90
81136;DHT22;70622;50.886;3.890;2024-02-21T06:13:10;8.60;99.90
81136;DHT22;70622;50.886;3.890;2024-02-21T06:15:55;8.80;99.90
81136;DHT22;70622;50.886;3.890;2024-02-21T06:18:48;8.80;99.90
81136;DHT22;70622;50.886;3.890;2024-02-21T06:21:49;8.80;99.90
81136;DHT22;70622;50.886;3.890;2024-02-21T06:24:55;8.70;99.90
81136;DHT22;70622;50.886;3.890;2024-02-21T06:27:20;8.70;99.90
81136;DHT22;70622;50.886;3.890;2024-02-21T06:29:46;8.70;99.90
81136;DHT22;70622;50.886;3.890;2024-02-21T06:32:31;8.80;99.90
81136;DHT22;70622;50.886;3.890;2024-02-21T06:34:57;8.90;99.90
81136;DHT22;70622;50.886;3.890;2024-02-21T06:37:27;8.80;99.90
81136;DHT22;70622;50.886;3.890;2024-02-21T06:39:52;8.70;99.90
81136;DHT22;70622;50.886;3.890;2024-02-21T06:42:25;8.70;99.90
81136;DHT22;70622;50.886;3.890;2024-02-21T06:44:52;8.70;99.90
81136;DHT22;70622;50.886;3.890;2024-02-21T06:47:37;8.70;99.90
81136;DHT22;70622;50.886;3.890;2024-02-21T06:50:18;8.70;99.90
81136;DHT22;70622;50.886;3.890;2024-02-21T06:52:44;8.70;99.90
81136;DHT22;70622;50.886;3.890;2024-02-21T06:55:11;8.70;99.90
81136;DHT22;70622;50.886;3.890;2024-02-21T06:57:56;8.60;99.90
81136;DHT22;70622;50.886;3.890;2024-02-21T07:00:44;8.70;99.90
81136;DHT22;70622;50.886;3.890;2024-02-21T07:03:13;8.70;99.90
81136;DHT22;70622;50.886;3.890;2024-02-21T07:09:03;8.60;99.90
81136;DHT22;70622;50.886;3.890;2024-02-21T07:25:16;8.90;99.90
81136;DHT22;70622;50.886;3.890;2024-02-21T07:28:16;9.00;99.90
81136;DHT22;70622;50.886;3.890;2024-02-21T07:30:45;9.10;99.90
81136;DHT22;70622;50.886;3.890;2024-02-21T07:33:11;9.20;99.90
81136;DHT22;70622;50.886;3.890;2024-02-21T07:35:37;9.20;99.90
81136;DHT22;70622;50.886;3.890;2024-02-21T07:38:04;9.30;99.90
81136;DHT22;70622;50.886;3.890;2024-02-21T07:40:30;9.50;99.90
81136;DHT22;70622;50.886;3.890;2024-02-21T07:42:56;9.50;99.90
81136;DHT22;70622;50.886;3.890;2024-02-21T07:45:21;9.50;99.90
81136;DHT22;70622;50.886;3.890;2024-02-21T07:47:49;9.50;99.90
81136;DHT22;70622;50.886;3.890;2024-02-21T07:50:14;9.40;99.90
81136;DHT22;70622;50.886;3.890;2024-02-21T07:52:40;9.40;99.90
81136;DHT22;70622;50.886;3.890;2024-02-21T07:55:05;9.40;99.90
81136;DHT22;70622;50.886;3.890;2024-02-21T07:57:31;9.30;99.90
81136;DHT22;70622;50.886;3.890;2024-02-21T07:59:56;9.20;99.90
81136;DHT22;70622;50.886;3.890;2024-02-21T08:02:22;9.20;99.90
81136;DHT22;70622;50.886;3.890;2024-02-21T08:04:47;9.10;99.90
81136;DHT22;70622;50.886;3.890;2024-02-21T08:07:13;9.00;99.90
81136;DHT22;70622;50.886;3.890;2024-02-21T08:09:39;9.00;99.90
81136;DHT22;70622;50.886;3.890;2024-02-21T08:12:05;9.10;99.90
81136;DHT22;70622;50.886;3.890;2024-02-21T08:14:31;9.10;99.90
81136;DHT22;70622;50.886;3.890;2024-02-21T08:16:56;9.20;99.90
81136;DHT22;70622;50.886;3.890;2024-02-21T08:19:22;9.30;99.90
81136;DHT22;70622;50.886;3.890;2024-02-21T08:21:48;9.30;99.90
81136;DHT22;70622;50.886;3.890;2024-02-21T08:24:13;9.20;99.90
81136;DHT22;70622;50.886;3.890;2024-02-21T08:26:41;9.20;99.90
81136;DHT22;70622;50.886;3.890;2024-02-21T08:29:07;9.20;99.90
81136;DHT22;70622;50.886;3.890;2024-02-21T08:31:32;9.20;99.90
81136;DHT22;70622;50.886;3.890;2024-02-21T08:33:59;9.30;99.90
81136;DHT22;70622;50.886;3.890;2024-02-21T08:36:28;9.30;99.90
81136;DHT22;70622;50.886;3.890;2024-02-21T08:38:54;9.40;99.90
81136;DHT22;70622;50.886;3.890;2024-02-21T08:41:20;9.40;99.90
81136;DHT22;70622;50.886;3.890;2024-02-21T08:43:48;9.40;99.90
81136;DHT22;70622;50.886;3.890;2024-02-21T08:46:13;9.40;99.90
81136;DHT22;70622;50.886;3.890;2024-02-21T08:48:39;9.40;99.90
81136;DHT22;70622;50.886;3.890;2024-02-21T08:51:04;9.60;99.90
81136;DHT22;70622;50.886;3.890;2024-02-21T08:53:30;9.70;99.90
81136;DHT22;70622;50.886;3.890;2024-02-21T08:55:56;9.80;99.90
81136;DHT22;70622;50.886;3.890;2024-02-21T08:58:22;9.80;99.90
81136;DHT22;70622;50.886;3.890;2024-02-21T09:00:49;9.80;99.90
81136;DHT22;70622;50.886;3.890;2024-02-21T09:03:15;9.70;99.90
81136;DHT22;70622;50.886;3.890;2024-02-21T09:05:40;9.70;99.90
81136;DHT22;70622;50.886;3.890;2024-02-21T09:08:06;9.70;99.90
81136;DHT22;70622;50.886;3.890;2024-02-21T09:10:31;9.80;99.90
81136;DHT22;70622;50.886;3.890;2024-02-21T09:12:57;9.80;99.90
81136;DHT22;70622;50.886;3.890;2024-02-21T09:15:22;10.00;99.90
81136;DHT22;70622;50.886;3.890;2024-02-21T09:17:49;10.00;99.90
81136;DHT22;70622;50.886;3.890;2024-02-21T09:20:15;10.10;99.90
81136;DHT22;70622;50.886;3.890;2024-02-21T09:22:41;10.20;99.90
81136;DHT22;70622;50.886;3.890;2024-02-21T09:25:07;10.20;99.90
81136;DHT22;70622;50.886;3.890;2024-02-21T09:27:33;10.30;99.90
81136;DHT22;70622;50.886;3.890;2024-02-21T09:29:58;10.30;99.90
81136;DHT22;70622;50.886;3.890;2024-02-21T09:32:24;10.40;99.90
81136;DHT22;70622;50.886;3.890;2024-02-21T09:34:49;10.30;99.90
81136;DHT22;70622;50.886;3.890;2024-02-21T09:37:15;10.20;99.90
81136;DHT22;70622;50.886;3.890;2024-02-21T09:39:41;10.30;99.90
81136;DHT22;70622;50.886;3.890;2024-02-21T09:42:06;10.30;99.90
81136;DHT22;70622;50.886;3.890;2024-02-21T09:44:35;10.20;99.90
81136;DHT22;70622;50.886;3.890;2024-02-21T09:47:02;10.20;99.90
81136;DHT22;70622;50.886;3.890;2024-02-21T09:49:30;10.30;99.90
81136;DHT22;70622;50.886;3.890;2024-02-21T09:51:58;10.30;99.90
81136;DHT22;70622;50.886;3.890;2024-02-21T09:54:25;10.40;99.90
81136;DHT22;70622;50.886;3.890;2024-02-21T09:56:53;10.40;99.90
81136;DHT22;70622;50.886;3.890;2024-02-21T09:59:18;10.50;99.90
81136;DHT22;70622;50.886;3.890;2024-02-21T10:01:44;10.60;99.90
81136;DHT22;70622;50.886;3.890;2024-02-21T10:04:10;10.40;99.90
81136;DHT22;70622;50.886;3.890;2024-02-21T10:06:35;10.50;99.90
81136;DHT22;70622;50.886;3.890;2024-02-21T10:09:02;10.50;99.90
81136;DHT22;70622;50.886;3.890;2024-02-21T10:11:28;10.50;99.90
81136;DHT22;70622;50.886;3.890;2024-02-21T10:14:09;10.50;99.90
81136;DHT22;70622;50.886;3.890;2024-02-21T10:16:34;10.30;99.90
81136;DHT22;70622;50.886;3.890;2024-02-21T10:19:00;10.20;99.90
81136;DHT22;70622;50.886;3.890;2024-02-21T10:21:29;10.30;99.90
81136;DHT22;70622;50.886;3.890;2024-02-21T10:23:54;10.30;99.90
81136;DHT22;70622;50.886;3.890;2024-02-21T10:26:20;10.40;99.90
81136;DHT22;70622;50.886;3.890;2024-02-21T10:28:46;10.40;99.90
81136;DHT22;70622;50.886;3.890;2024-02-21T10:31:28;10.50;99.90
81136;DHT22;70622;50.886;3.890;2024-02-21T10:33:54;10.40;99.90
81136;DHT22;70622;50.886;3.890;2024-02-21T10:36:20;10.40;99.90
81136;DHT22;70622;50.886;3.890;2024-02-21T10:38:45;10.30;99.90
81136;DHT22;70622;50.886;3.890;2024-02-21T10:41:12;10.40;99.90
81136;DHT22;70622;50.886;3.890;2024-02-21T10:43:39;10.40;99.90
81136;DHT22;70622;50.886;3.890;2024-02-21T10:46:07;10.40;99.90
81136;DHT22;70622;50.886;3.890;2024-02-21T10:48:42;10.40;99.90
81136;DHT22;70622;50.886;3.890;2024-02-21T10:51:14;10.30;99.90
81136;DHT22;70622;50.886;3.890;2024-02-21T10:59:01;10.20;99.90
81136;DHT22;70622;50.886;3.890;2024-02-21T11:01:29;10.30;99.90
81136;DHT22;70622;50.886;3.890;2024-02-21T11:03:57;10.40;99.90
81136;DHT22;70622;50.886;3.890;2024-02-21T11:06:23;10.30;99.90
81136;DHT22;70622;50.886;3.890;2024-02-21T11:11:35;10.30;99.90
81136;DHT22;70622;50.886;3.890;2024-02-21T11:14:04;10.20;99.90
81136;DHT22;70622;50.886;3.890;2024-02-21T11:16:34;10.10;99.90
81136;DHT22;70622;50.886;3.890;2024-02-21T11:19:04;10.20;99.90
81136;DHT22;70622;50.886;3.890;2024-02-21T11:21:33;10.30;99.90
81136;DHT22;70622;50.886;3.890;2024-02-21T11:23:59;10.60;99.90
81136;DHT22;70622;50.886;3.890;2024-02-21T11:29:44;11.00;99.90
81136;DHT22;70622;50.886;3.890;2024-02-21T11:32:25;10.80;99.90
81136;DHT22;70622;50.886;3.890;2024-02-21T11:35:19;10.80;99.90
81136;DHT22;70622;50.886;3.890;2024-02-21T11:43:53;10.70;99.90
81136;DHT22;70622;50.886;3.890;2024-02-21T11:54:23;10.40;99.90
81136;DHT22;70622;50.886;3.890;2024-02-21T11:56:48;10.30;99.90
81136;DHT22;70622;50.886;3.890;2024-02-21T11:59:15;10.20;99.90
81136;DHT22;70622;50.886;3.890;2024-02-21T12:01:41;10.20;99.90
81136;DHT22;70622;50.886;3.890;2024-02-21T12:04:06;10.20;99.90
81136;DHT22;70622;50.886;3.890;2024-02-21T12:06:32;10.30;99.90
81136;DHT22;70622;50.886;3.890;2024-02-21T12:08:59;10.30;99.90
81136;DHT22;70622;50.886;3.890;2024-02-21T12:11:29;10.20;99.90
81136;DHT22;70622;50.886;3.890;2024-02-21T12:14:00;10.20;99.90
81136;DHT22;70622;50.886;3.890;2024-02-21T12:16:41;10.20;99.90
81136;DHT22;70622;50.886;3.890;2024-02-21T12:19:13;10.30;99.90
81136;DHT22;70622;50.886;3.890;2024-02-21T12:21:49;10.20;99.90
81136;DHT22;70622;50.886;3.890;2024-02-21T12:24:24;10.30;99.90
81136;DHT22;70622;50.886;3.890;2024-02-21T12:26:50;10.50;99.90
81136;DHT22;70622;50.886;3.890;2024-02-21T12:29:17;10.60;99.90
81136;DHT22;70622;50.886;3.890;2024-02-21T12:31:43;10.70;99.90
81136;DHT22;70622;50.886;3.890;2024-02-21T12:34:09;10.70;99.90
81136;DHT22;70622;50.886;3.890;2024-02-21T12:36:36;10.80;99.90
81136;DHT22;70622;50.886;3.890;2024-02-21T12:39:01;10.80;99.90
81136;DHT22;70622;50.886;3.890;2024-02-21T12:41:29;10.80;99.90
81136;DHT22;70622;50.886;3.890;2024-02-21T12:43:56;10.80;99.90
81136;DHT22;70622;50.886;3.890;2024-02-21T12:46:22;10.80;99.90
81136;DHT22;70622;50.886;3.890;2024-02-21T12:48:47;10.80;99.90
81136;DHT22;70622;50.886;3.890;2024-02-21T12:51:13;10.90;99.90
81136;DHT22;70622;50.886;3.890;2024-02-21T12:53:39;11.00;99.90
81136;DHT22;70622;50.886;3.890;2024-02-21T12:56:04;11.00;99.90
81136;DHT22;70622;50.886;3.890;2024-02-21T12:58:31;10.90;99.90
81136;DHT22;70622;50.886;3.890;2024-02-21T13:00:57;11.00;99.90
81136;DHT22;70622;50.886;3.890;2024-02-21T13:03:22;11.00;99.90
81136;DHT22;70622;50.886;3.890;2024-02-21T13:05:48;11.00;99.90
81136;DHT22;70622;50.886;3.890;2024-02-21T13:08:13;11.10;99.90
81136;DHT22;70622;50.886;3.890;2024-02-21T13:10:39;11.00;99.90
81136;DHT22;70622;50.886;3.890;2024-02-21T13:13:04;10.90;99.90
81136;DHT22;70622;50.886;3.890;2024-02-21T13:15:30;10.80;99.90
81136;DHT22;70622;50.886;3.890;2024-02-21T13:17:56;10.80;99.90
81136;DHT22;70622;50.886;3.890;2024-02-21T13:20:22;10.80;99.90
81136;DHT22;70622;50.886;3.890;2024-02-21T13:22:47;10.60;99.90
81136;DHT22;70622;50.886;3.890;2024-02-21T13:25:13;10.50;99.90
81136;DHT22;70622;50.886;3.890;2024-02-21T13:27:43;10.40;99.90
81136;DHT22;70622;50.886;3.890;2024-02-21T13:30:09;10.40;99.90
81136;DHT22;70622;50.886;3.890;2024-02-21T13:32:35;10.40;99.90
81136;DHT22;70622;50.886;3.890;2024-02-21T13:35:00;10.40;99.90
81136;DHT22;70622;50.886;3.890;2024-02-21T13:37:27;10.40;99.90
81136;DHT22;70622;50.886;3.890;2024-02-21T13:39:52;10.40;99.90
81136;DHT22;70622;50.886;3.890;2024-02-21T13:42:18;10.30;99.90
81136;DHT22;70622;50.886;3.890;2024-02-21T13:44:44;10.30;99.90
81136;DHT22;70622;50.886;3.890;2024-02-21T13:47:10;10.30;99.90
81136;DHT22;70622;50.886;3.890;2024-02-21T13:49:36;10.40;99.90
81136;DHT22;70622;50.886;3.890;2024-02-21T13:52:02;10.40;99.90
81136;DHT22;70622;50.886;3.890;2024-02-21T13:54:27;10.40;99.90
81136;DHT22;70622;50.886;3.890;2024-02-21T13:56:53;10.40;99.90
81136;DHT22;70622;50.886;3.890;2024-02-21T13:59:18;10.40;99.90
81136;DHT22;70622;50.886;3.890;2024-02-21T14:01:44;10.40;99.90
81136;DHT22;70622;50.886;3.890;2024-02-21T14:04:09;10.30;99.90
81136;DHT22;70622;50.886;3.890;2024-02-21T14:06:35;10.30;99.90
81136;DHT22;70622;50.886;3.890;2024-02-21T14:09:00;10.30;99.90
81136;DHT22;70622;50.886;3.890;2024-02-21T14:11:26;10.20;99.90
81136;DHT22;70622;50.886;3.890;2024-02-21T14:13:52;10.30;99.90
81136;DHT22;70622;50.886;3.890;2024-02-21T14:16:18;10.30;99.90
81136;DHT22;70622;50.886;3.890;2024-02-21T14:18:43;10.30;99.90
81136;DHT22;70622;50.886;3.890;2024-02-21T14:21:09;10.20;99.90
81136;DHT22;70622;50.886;3.890;2024-02-21T14:23:37;10.20;99.90
81136;DHT22;70622;50.886;3.890;2024-02-21T14:26:03;10.20;99.90
81136;DHT22;70622;50.886;3.890;2024-02-21T14:28:29;10.20;99.90
81136;DHT22;70622;50.886;3.890;2024-02-21T14:30:55;10.20;99.90
81136;DHT22;70622;50.886;3.890;2024-02-21T14:33:23;10.10;99.90
81136;DHT22;70622;50.886;3.890;2024-02-21T14:35:49;10.10;99.90
81136;DHT22;70622;50.886;3.890;2024-02-21T14:38:14;10.10;99.90
81136;DHT22;70622;50.886;3.890;2024-02-21T14:40:40;10.00;99.90
81136;DHT22;70622;50.886;3.890;2024-02-21T14:43:05;9.90;99.90
81136;DHT22;70622;50.886;3.890;2024-02-21T14:45:31;9.90;99.90
81136;DHT22;70622;50.886;3.890;2024-02-21T14:47:56;9.90;99.90
81136;DHT22;70622;50.886;3.890;2024-02-21T14:50:22;9.90;99.90
81136;DHT22;70622;50.886;3.890;2024-02-21T14:52:48;9.90;99.90
81136;DHT22;70622;50.886;3.890;2024-02-21T14:55:14;9.90;99.90
81136;DHT22;70622;50.886;3.890;2024-02-21T14:57:39;10.00;99.90
81136;DHT22;70622;50.886;3.890;2024-02-21T15:00:07;10.00;99.90
81136;DHT22;70622;50.886;3.890;2024-02-21T15:02:33;10.00;99.90
81136;DHT22;70622;50.886;3.890;2024-02-21T15:05:00;10.00;99.90
81136;DHT22;70622;50.886;3.890;2024-02-21T15:07:26;9.90;99.90
81136;DHT22;70622;50.886;3.890;2024-02-21T15:09:51;9.90;99.90
81136;DHT22;70622;50.886;3.890;2024-02-21T15:12:17;9.90;99.90
81136;DHT22;70622;50.886;3.890;2024-02-21T15:14:43;10.00;99.90
81136;DHT22;70622;50.886;3.890;2024-02-21T15:17:10;10.00;99.90
81136;DHT22;70622;50.886;3.890;2024-02-21T15:19:36;10.00;99.90
81136;DHT22;70622;50.886;3.890;2024-02-21T15:22:02;9.90;99.90
81136;DHT22;70622;50.886;3.890;2024-02-21T15:24:28;10.00;99.90
81136;DHT22;70622;50.886;3.890;2024-02-21T15:26:53;9.90;99.90
81136;DHT22;70622;50.886;3.890;2024-02-21T15:29:19;9.80;99.90
81136;DHT22;70622;50.886;3.890;2024-02-21T15:31:45;9.70;99.90
81136;DHT22;70622;50.886;3.890;2024-02-21T15:34:13;9.60;99.90
81136;DHT22;70622;50.886;3.890;2024-02-21T15:36:38;9.60;99.90
81136;DHT22;70622;50.886;3.890;2024-02-21T15:39:04;9.60;99.90
81136;DHT22;70622;50.886;3.890;2024-02-21T15:41:30;9.70;99.90
81136;DHT22;70622;50.886;3.890;2024-02-21T15:43:55;9.70;99.90
81136;DHT22;70622;50.886;3.890;2024-02-21T15:46:24;9.70;99.90
81136;DHT22;70622;50.886;3.890;2024-02-21T15:48:49;9.70;99.90
81136;DHT22;70622;50.886;3.890;2024-02-21T15:51:19;9.60;99.90
81136;DHT22;70622;50.886;3.890;2024-02-21T15:53:45;9.70;99.90
81136;DHT22;70622;50.886;3.890;2024-02-21T15:56:11;9.70;99.90
81136;DHT22;70622;50.886;3.890;2024-02-21T15:58:39;9.60;99.90
81136;DHT22;70622;50.886;3.890;2024-02-21T16:01:05;9.70;99.90
81136;DHT22;70622;50.886;3.890;2024-02-21T16:03:30;9.60;99.90
81136;DHT22;70622;50.886;3.890;2024-02-21T16:05:56;9.60;99.90
81136;DHT22;70622;50.886;3.890;2024-02-21T16:08:22;9.60;99.90
81136;DHT22;70622;50.886;3.890;2024-02-21T16:10:48;9.50;99.90
81136;DHT22;70622;50.886;3.890;2024-02-21T16:13:13;9.60;99.90
81136;DHT22;70622;50.886;3.890;2024-02-21T16:15:39;9.60;99.90
81136;DHT22;70622;50.886;3.890;2024-02-21T16:18:05;9.60;99.90
81136;DHT22;70622;50.886;3.890;2024-02-21T16:20:31;9.50;99.90
81136;DHT22;70622;50.886;3.890;2024-02-21T16:22:56;9.60;99.90
81136;DHT22;70622;50.886;3.890;2024-02-21T16:25:29;9.60;99.90
81136;DHT22;70622;50.886;3.890;2024-02-21T16:27:54;9.60;99.90
81136;DHT22;70622;50.886;3.890;2024-02-21T16:30:20;9.60;99.90